My Meet Scores
Madison Bateman, Gym Kinetics Gymnastics - MyMeetScores.com
Top100 | Top Teams | Upcoming Meets | Completed Meets | Latest | Add Scores | Help| Support | Bookmark and Share

Madison Bateman, Gym Kinetics Gymnastics
Personal Bests
LevelVault BarsBeamFloorAA
49.1759.350 9.0509.25036.725
58.3508.850 9.0508.65034.600
69.0508.900 9.3509.00035.850
79.4508.800 9.2009.30036.175
Meet Scores
Date Meet Team Session Level Division Vault Bars Beam Floor AA
2014-02-15 BIG Dream Classic 2014 Gym Kinetics Gymnastics 1B 7 Senior B 9.200 15T 8.475 13 9.200 4 9.300 7T 36.175 9
2013-12-06 Ultimate Wish Classic Gym Kinetics Gymnastics A 7 Senior17 9.150 12 7.700 11 8.900 4 9.200 7 34.950 11
2013-03-15 2013 Illinois Level 6, 7 State Meet Gym Kinetics Gymnastics 6 7 Sr.B 9.225 27 6.300 32 8.450 30 9.050 24 33.025 32
2013-02-22 Midwest Open 2013 Gym Kinetics Gymnastics 10A 7 12 9.250 4 8.150 6 9.050 3 9.050 3 35.500 3
2013-02-16 BIG Dream Classic 2013 Gym Kinetics Gymnastics 1B 7 Senior A 9.450 4 8.350 6 8.325 10 9.125 8 35.250 9
2012-12-13 2012 Hawaiin Pineapple Classic Gym Kinetics Gymnastics 4 7 age 12 8.900 6 8.300 6 9.050 1 9.250 3 35.500 3
2012-11-30 Ultimate Wish Classic 2012 Gym Kinetics Gymnastics 7 L7 Sr A S3 9.300 5 7.900 12 8.700 8 9.000 13 34.900 11
2012-11-09 2012 Illinois Judges Cup Gym Kinetics Gymnastics 4A 7 12 9.025 7 8.450 14 8.400 13 8.800 11 34.675 13
2012-03-16 2012 Illinois Level 6, 7 State Championships Gym Kinetics Gymnastics 3 6 Jr.C 9.050 5T 8.750 2T 9.000 9T 8.950 11 35.750 6
2012-02-25 Midwest Open 2012 Flipstar Gymnastics Academy 5B 6 Lvl 6: 11 9.000 5 8.900 4 9.000 13 8.300 16 35.200 8
2012-02-10 IGI Chicago Style Gymnastics Gym Kinetics Gymnastics 511 6 11 Yr Olds 8.800 6T 8.750 3 8.675 9T 9.000 6 35.225 3T
2012-01-20 Sand Dollar/ Whitlow Invitational Flipstar Gymnastics Academy E07 6 Jr B 8.600 5 8.450 3 8.850 1 8.625 3 34.525 1
2012-01-06 2012 St. Jude Invite Flipstar Gymnastics Academy 2 7 Junior 8.850 10 8.800 4 8.150 10 9.250 7 35.050 4
2012-01-06 2012 St. Jude Invite Flipstar Gymnastics Academy 6A 6 Junior 8.725 9 8.550 5 8.850 5 8.450 12 34.575 6
2011-12-15 2011 Hawaiian Pineapple Classic Flipstar Gymnastics Academy 9B 6 11 8.750 6T 8.725 2 8.875 5 8.375 8 34.725 4
2011-11-18 2011 Thanksgiving Classic Gym Kinetics Gymnastics 4 6 11+ 8.525 31 8.400 8T 8.450 20 8.200 18T 33.575 16
2011-03-25 2011 Illinois Level 6-9-10 State Meet Flipstar Gymnastics Academy 3 6 Child.D 8.950 21 8.650 11 9.350 8 8.900 17 35.850 14
2011-03-04 Elgin Invite Flipstar Gymnastics Academy 6 6 10 8.500 14 8.750 10 9.025 8 8.500 25 34.775 12
2011-02-19 Big Dream Classic Gym Kinetics Gymnastics 5A 6 7-10 yrs 8.850 10 7.975 15 9.075 6T 8.750 10 34.650 10T
2011-02-11 IGI Chicago Style Gymnastics Meet Gym Kinetics Gymnastics 531 6 10 & Under 8.500 22 8.475 21 8.350 23 8.500 21 33.825 23
2011-01-21 Bravo Classic Flipstar Gymnastics Academy 5B 6 7-10 8.900 18 8.225 16 8.800 16 7.800 25 33.725 21
2011-01-08 Crossroads Classic Gym Kinetics Gymnastics 3B 6 Ch 8.500 3 7.550 7 8.750 4 7.750 8 32.550 7
2010-12-03 Make a Wish Gym Kinetics Gymnastics 8 6 10 8.550 12T 8.000 9 8.350 13T 7.750 18 32.650 14
2010-04-23 2010 Illinois Level 5 State Championships Gym Kinetics Gymnastics 5 YouthB 8.300 26 8.850 11 8.800 23 8.650 25 34.600 21
2010-02-12 IGI Chicago Style Gymnastics Meet Flipstar Gymnastics Academy 633 5 9 & Under 8.350 23T 8.350 21T 9.050 6T 8.375 26 34.125 19T
2010-01-29 Wisconsin Dells Gymnastics Vacation Classic Flipstar Gymnastics Academy 5C,5D 5 9 7.850 20 8.350 8 9.000 10 8.300 19T 33.500 15
2010-01-09 Crossroads Classic 2010 Flipstar Gymnastics Academy All Sessions Combined 5 Jr A 8.300 7T 8.450 10 8.450 10 8.150 13T 33.350 9
2009-11-13 2009 North Judges Cup Gym Kinetics Sports Complex 3A 5 7-9 7.850 15 8.400 7 7.800 19 8.450 13 32.500 12
2009-03-13 2009 Illinois Level 4 State Championships Gym-Kinetics 4 JrA 9.175 18 9.325 1 8.700 11 8.850 9 36.050 8
2009-03-07 Midwest Open 2009 Gym Kinetics Sports Complex 2A 4 8 9.075 8 9.350 3 9.050 12 9.250 8 36.725 6
2009-02-06 IGI Chicago Style Gymnastics Meet Gym Kinetics Gymnastics 121 4 8 and Under 0.000 45 0.000 45 0.000 45 0.000 45 0.000 45
2009-01-23 2009 Bravo Classic Gym Kinetics Gymnastics 8B 4 8yrs 8.750 23 9.100 6 8.700 14 8.750 20 35.300 16
2009-01-09 Twistars Invitational 2009 Midnight Madness Gym Kinetics Sports Complex 4b 4 8 9.025 7 9.075 4 8.675 5 8.600 9 35.375 3
2008-12-13 St Nick Invite Gym Kinetics Sports Complex 5 4 All 8.650 47 9.025 13 8.850 25 8.500 57 35.025 30
2008-11-22 Thanksgiving Classic Gym Kinetics Gymnastics 6 4 Ch 8 8.850 17T 9.000 4 7.200 23 8.475 14 33.525 12

www.lazysuits.com